sensor_id;sensor_type;location;lat;lon;timestamp;pressure;altitude;pressure_sealevel;temperature;humidity
65756;BME280;52489;47.502;18.940;2022-10-24T00:00:58;98471.78;;;13.82;100.00
65756;BME280;52489;47.502;18.940;2022-10-24T00:02:02;98468.56;;;13.94;99.74
65756;BME280;52489;47.502;18.940;2022-10-24T00:03:05;98465.47;;;14.00;98.82
65756;BME280;52489;47.502;18.940;2022-10-24T00:04:07;98464.56;;;13.96;98.73
65756;BME280;52489;47.502;18.940;2022-10-24T00:05:13;98467.16;;;13.87;99.31
65756;BME280;52489;47.502;18.940;2022-10-24T00:06:17;98462.66;;;13.88;99.33
65756;BME280;52489;47.502;18.940;2022-10-24T00:07:20;98461.25;;;13.82;99.87
65756;BME280;52489;47.502;18.940;2022-10-24T00:08:23;98458.75;;;13.77;100.00
65756;BME280;52489;47.502;18.940;2022-10-24T00:09:25;98457.72;;;13.95;99.50
65756;BME280;52489;47.502;18.940;2022-10-24T00:10:28;98455.81;;;13.87;99.74
65756;BME280;52489;47.502;18.940;2022-10-24T00:11:31;98460.16;;;13.83;100.00
65756;BME280;52489;47.502;18.940;2022-10-24T00:12:34;98463.09;;;13.73;100.00
65756;BME280;52489;47.502;18.940;2022-10-24T00:13:37;98464.62;;;13.74;100.00
65756;BME280;52489;47.502;18.940;2022-10-24T00:14:40;98467.44;;;13.86;100.00
65756;BME280;52489;47.502;18.940;2022-10-24T00:15:45;98466.25;;;14.01;99.62
65756;BME280;52489;47.502;18.940;2022-10-24T00:16:49;98473.06;;;14.02;99.07
65756;BME280;52489;47.502;18.940;2022-10-24T00:17:52;98466.69;;;13.85;99.73
65756;BME280;52489;47.502;18.940;2022-10-24T00:18:54;98462.19;;;13.86;100.00
65756;BME280;52489;47.502;18.940;2022-10-24T00:19:57;98464.53;;;13.87;99.88
65756;BME280;52489;47.502;18.940;2022-10-24T00:21:01;98466.41;;;14.04;99.08
65756;BME280;52489;47.502;18.940;2022-10-24T00:22:04;98464.72;;;14.00;98.75
65756;BME280;52489;47.502;18.940;2022-10-24T00:23:08;98458.81;;;13.94;99.06
65756;BME280;52489;47.502;18.940;2022-10-24T00:24:11;98462.06;;;14.00;99.06
65756;BME280;52489;47.502;18.940;2022-10-24T00:25:14;98464.06;;;13.94;98.98
65756;BME280;52489;47.502;18.940;2022-10-24T00:26:16;98464.94;;;13.81;99.88
65756;BME280;52489;47.502;18.940;2022-10-24T00:27:19;98464.50;;;13.79;100.00
65756;BME280;52489;47.502;18.940;2022-10-24T00:28:22;98461.53;;;13.80;100.00
65756;BME280;52489;47.502;18.940;2022-10-24T00:29:25;98466.53;;;13.82;100.00
65756;BME280;52489;47.502;18.940;2022-10-24T00:30:28;98471.78;;;13.82;100.00
65756;BME280;52489;47.502;18.940;2022-10-24T00:31:31;98468.06;;;13.83;99.68
65756;BME280;52489;47.502;18.940;2022-10-24T00:32:33;98469.13;;;13.73;100.00
65756;BME280;52489;47.502;18.940;2022-10-24T00:33:36;98466.12;;;13.66;100.00
65756;BME280;52489;47.502;18.940;2022-10-24T00:34:39;98462.91;;;13.69;100.00
65756;BME280;52489;47.502;18.940;2022-10-24T00:35:42;98462.75;;;13.74;100.00
65756;BME280;52489;47.502;18.940;2022-10-24T00:36:45;98459.88;;;13.84;99.86
65756;BME280;52489;47.502;18.940;2022-10-24T00:37:51;98458.66;;;13.91;99.55
65756;BME280;52489;47.502;18.940;2022-10-24T00:38:54;98457.25;;;13.93;98.80
65756;BME280;52489;47.502;18.940;2022-10-24T00:39:56;98451.97;;;13.84;99.12
65756;BME280;52489;47.502;18.940;2022-10-24T00:40:59;98454.56;;;13.76;99.76
65756;BME280;52489;47.502;18.940;2022-10-24T00:42:02;98455.38;;;13.85;99.43
65756;BME280;52489;47.502;18.940;2022-10-24T00:43:13;98455.53;;;13.88;98.79
65756;BME280;52489;47.502;18.940;2022-10-24T00:44:27;98453.50;;;13.85;99.18
65756;BME280;52489;47.502;18.940;2022-10-24T00:47:08;98451.63;;;13.77;99.49
65756;BME280;52489;47.502;18.940;2022-10-24T00:49:45;98451.78;;;13.81;99.16
65756;BME280;52489;47.502;18.940;2022-10-24T00:50:53;98447.94;;;13.78;99.33
65756;BME280;52489;47.502;18.940;2022-10-24T00:52:01;98443.25;;;13.75;99.44
65756;BME280;52489;47.502;18.940;2022-10-24T00:53:05;98443.81;;;13.63;100.00
65756;BME280;52489;47.502;18.940;2022-10-24T00:54:10;98446.50;;;13.72;99.85
65756;BME280;52489;47.502;18.940;2022-10-24T00:55:15;98438.75;;;13.67;100.00
65756;BME280;52489;47.502;18.940;2022-10-24T00:56:20;98439.16;;;13.60;100.00
65756;BME280;52489;47.502;18.940;2022-10-24T00:57:52;98438.31;;;13.74;99.83
65756;BME280;52489;47.502;18.940;2022-10-24T00:58:58;98435.66;;;13.74;99.54
65756;BME280;52489;47.502;18.940;2022-10-24T01:00:10;98432.59;;;13.80;99.35
65756;BME280;52489;47.502;18.940;2022-10-24T01:01:14;98445.09;;;13.75;99.71
65756;BME280;52489;47.502;18.940;2022-10-24T01:02:17;98445.41;;;13.64;100.00
65756;BME280;52489;47.502;18.940;2022-10-24T01:03:21;98446.81;;;13.71;99.90
65756;BME280;52489;47.502;18.940;2022-10-24T01:04:24;98452.69;;;13.68;100.00
65756;BME280;52489;47.502;18.940;2022-10-24T01:05:31;98458.44;;;13.70;99.50
65756;BME280;52489;47.502;18.940;2022-10-24T01:08:12;98448.16;;;13.59;100.00
65756;BME280;52489;47.502;18.940;2022-10-24T01:14:55;98435.12;;;13.54;100.00
65756;BME280;52489;47.502;18.940;2022-10-24T01:16:28;98429.13;;;13.62;100.00
65756;BME280;52489;47.502;18.940;2022-10-24T01:18:51;98435.44;;;13.53;100.00
65756;BME280;52489;47.502;18.940;2022-10-24T01:20:20;98441.78;;;13.52;100.00
65756;BME280;52489;47.502;18.940;2022-10-24T01:21:30;98446.87;;;13.48;100.00
65756;BME280;52489;47.502;18.940;2022-10-24T01:22:59;98445.28;;;13.38;100.00
65756;BME280;52489;47.502;18.940;2022-10-24T01:28:28;98444.31;;;13.26;100.00
65756;BME280;52489;47.502;18.940;2022-10-24T01:29:55;98454.06;;;13.34;100.00
65756;BME280;52489;47.502;18.940;2022-10-24T01:31:11;98451.31;;;13.39;100.00
65756;BME280;52489;47.502;18.940;2022-10-24T01:33:57;98446.75;;;13.53;100.00
65756;BME280;52489;47.502;18.940;2022-10-24T01:35:26;98447.50;;;13.54;100.00
65756;BME280;52489;47.502;18.940;2022-10-24T01:36:56;98445.66;;;13.54;100.00
65756;BME280;52489;47.502;18.940;2022-10-24T01:38:27;98445.94;;;13.44;100.00
65756;BME280;52489;47.502;18.940;2022-10-24T01:39:39;98437.13;;;13.49;100.00
65756;BME280;52489;47.502;18.940;2022-10-24T01:40:55;98436.31;;;13.39;100.00
65756;BME280;52489;47.502;18.940;2022-10-24T01:42:00;98433.34;;;13.32;100.00
65756;BME280;52489;47.502;18.940;2022-10-24T01:43:09;98432.78;;;13.44;100.00
65756;BME280;52489;47.502;18.940;2022-10-24T01:44:15;98432.59;;;13.40;100.00
65756;BME280;52489;47.502;18.940;2022-10-24T01:45:47;98436.25;;;13.31;100.00
65756;BME280;52489;47.502;18.940;2022-10-24T01:47:04;98429.56;;;13.25;100.00
65756;BME280;52489;47.502;18.940;2022-10-24T01:48:11;98428.91;;;13.19;100.00
65756;BME280;52489;47.502;18.940;2022-10-24T01:49:17;98434.72;;;13.30;100.00
65756;BME280;52489;47.502;18.940;2022-10-24T01:50:22;98437.06;;;13.31;100.00
65756;BME280;52489;47.502;18.940;2022-10-24T01:51:28;98441.41;;;13.36;100.00
65756;BME280;52489;47.502;18.940;2022-10-24T01:52:36;98432.72;;;13.35;100.00
65756;BME280;52489;47.502;18.940;2022-10-24T01:53:42;98434.59;;;13.35;100.00
65756;BME280;52489;47.502;18.940;2022-10-24T01:54:50;98438.72;;;13.27;100.00
65756;BME280;52489;47.502;18.940;2022-10-24T01:55:53;98435.81;;;13.29;100.00
65756;BME280;52489;47.502;18.940;2022-10-24T01:56:56;98432.41;;;13.28;100.00
65756;BME280;52489;47.502;18.940;2022-10-24T01:57:59;98433.34;;;13.32;100.00
65756;BME280;52489;47.502;18.940;2022-10-24T01:59:52;98439.09;;;13.34;100.00
65756;BME280;52489;47.502;18.940;2022-10-24T02:00:30;98438.13;;;13.30;100.00
65756;BME280;52489;47.502;18.940;2022-10-24T02:01:34;98436.19;;;13.22;100.00
65756;BME280;52489;47.502;18.940;2022-10-24T02:02:42;98433.72;;;13.17;100.00
65756;BME280;52489;47.502;18.940;2022-10-24T02:03:50;98437.19;;;13.26;100.00
65756;BME280;52489;47.502;18.940;2022-10-24T02:05:00;98428.25;;;13.36;100.00
65756;BME280;52489;47.502;18.940;2022-10-24T02:06:09;98430.59;;;13.37;100.00
65756;BME280;52489;47.502;18.940;2022-10-24T02:07:14;98419.09;;;13.33;100.00
65756;BME280;52489;47.502;18.940;2022-10-24T02:08:24;98415.13;;;13.45;100.00
65756;BME280;52489;47.502;18.940;2022-10-24T02:09:29;98410.00;;;13.39;100.00
65756;BME280;52489;47.502;18.940;2022-10-24T02:10:41;98412.34;;;13.41;100.00
65756;BME280;52489;47.502;18.940;2022-10-24T02:11:47;98414.16;;;13.32;100.00
65756;BME280;52489;47.502;18.940;2022-10-24T02:12:54;98413.44;;;13.17;100.00
65756;BME280;52489;47.502;18.940;2022-10-24T02:14:09;98410.19;;;13.20;100.00
65756;BME280;52489;47.502;18.940;2022-10-24T02:15:35;98406.44;;;13.13;100.00
65756;BME280;52489;47.502;18.940;2022-10-24T02:16:38;98405.22;;;13.10;100.00
65756;BME280;52489;47.502;18.940;2022-10-24T02:17:42;98389.19;;;12.98;100.00
65756;BME280;52489;47.502;18.940;2022-10-24T02:18:47;98389.94;;;12.90;100.00
65756;BME280;52489;47.502;18.940;2022-10-24T02:19:58;98392.09;;;12.88;100.00
65756;BME280;52489;47.502;18.940;2022-10-24T02:22:27;98387.91;;;12.87;100.00
65756;BME280;52489;47.502;18.940;2022-10-24T02:23:02;98387.91;;;12.87;100.00
65756;BME280;52489;47.502;18.940;2022-10-24T02:24:14;98382.56;;;13.01;100.00
65756;BME280;52489;47.502;18.940;2022-10-24T02:25:24;98384.97;;;13.19;100.00
65756;BME280;52489;47.502;18.940;2022-10-24T02:26:38;98385.44;;;13.21;100.00
65756;BME280;52489;47.502;18.940;2022-10-24T02:28:34;98389.59;;;13.14;100.00
65756;BME280;52489;47.502;18.940;2022-10-24T02:29:14;98383.69;;;13.08;100.00
65756;BME280;52489;47.502;18.940;2022-10-24T02:30:22;98387.22;;;13.04;100.00
65756;BME280;52489;47.502;18.940;2022-10-24T02:31:31;98388.13;;;12.99;100.00
65756;BME280;52489;47.502;18.940;2022-10-24T02:32:38;98393.56;;;13.03;100.00
65756;BME280;52489;47.502;18.940;2022-10-24T02:33:43;98401.78;;;13.10;100.00
65756;BME280;52489;47.502;18.940;2022-10-24T02:34:46;98397.12;;;13.07;100.00
65756;BME280;52489;47.502;18.940;2022-10-24T02:35:50;98397.66;;;13.17;100.00
65756;BME280;52489;47.502;18.940;2022-10-24T02:36:56;98400.87;;;13.37;100.00
65756;BME280;52489;47.502;18.940;2022-10-24T02:38:05;98402.84;;;13.31;100.00
65756;BME280;52489;47.502;18.940;2022-10-24T02:39:10;98401.97;;;13.45;100.00
65756;BME280;52489;47.502;18.940;2022-10-24T02:40:15;98396.84;;;13.39;100.00
65756;BME280;52489;47.502;18.940;2022-10-24T02:41:27;98405.50;;;13.09;100.00
65756;BME280;52489;47.502;18.940;2022-10-24T02:42:32;98400.84;;;13.06;100.00
65756;BME280;52489;47.502;18.940;2022-10-24T02:43:37;98392.00;;;13.02;100.00
65756;BME280;52489;47.502;18.940;2022-10-24T02:44:41;98388.72;;;12.96;100.00
65756;BME280;52489;47.502;18.940;2022-10-24T02:45:45;98391.16;;;12.84;100.00
65756;BME280;52489;47.502;18.940;2022-10-24T02:46:51;98400.19;;;12.78;100.00
65756;BME280;52489;47.502;18.940;2022-10-24T02:47:59;98400.31;;;12.95;100.00
65756;BME280;52489;47.502;18.940;2022-10-24T02:49:04;98398.13;;;12.88;100.00
65756;BME280;52489;47.502;18.940;2022-10-24T02:50:08;98406.38;;;12.95;100.00
65756;BME280;52489;47.502;18.940;2022-10-24T02:51:13;98403.53;;;13.14;100.00
65756;BME280;52489;47.502;18.940;2022-10-24T02:52:17;98417.88;;;13.08;100.00
65756;BME280;52489;47.502;18.940;2022-10-24T02:53:23;98422.87;;;13.18;100.00
65756;BME280;52489;47.502;18.940;2022-10-24T02:54:30;98420.12;;;13.24;100.00
65756;BME280;52489;47.502;18.940;2022-10-24T02:55:33;98413.66;;;12.98;100.00
65756;BME280;52489;47.502;18.940;2022-10-24T02:56:43;98408.63;;;12.88;100.00
65756;BME280;52489;47.502;18.940;2022-10-24T02:57:47;98407.00;;;13.01;100.00
65756;BME280;52489;47.502;18.940;2022-10-24T02:58:50;98407.91;;;12.96;100.00
65756;BME280;52489;47.502;18.940;2022-10-24T02:59:53;98401.34;;;12.85;100.00
65756;BME280;52489;47.502;18.940;2022-10-24T03:00:55;98397.50;;;12.91;100.00
65756;BME280;52489;47.502;18.940;2022-10-24T03:01:58;98392.47;;;13.04;100.00
65756;BME280;52489;47.502;18.940;2022-10-24T03:03:01;98384.94;;;13.11;100.00
65756;BME280;52489;47.502;18.940;2022-10-24T03:04:04;98386.81;;;13.10;100.00
65756;BME280;52489;47.502;18.940;2022-10-24T03:05:07;98380.94;;;13.13;100.00
65756;BME280;52489;47.502;18.940;2022-10-24T03:06:10;98389.00;;;13.17;100.00
65756;BME280;52489;47.502;18.940;2022-10-24T03:07:13;98383.25;;;13.15;100.00
65756;BME280;52489;47.502;18.940;2022-10-24T03:08:16;98387.16;;;12.95;100.00
65756;BME280;52489;47.502;18.940;2022-10-24T03:09:19;98388.50;;;12.84;100.00
65756;BME280;52489;47.502;18.940;2022-10-24T03:10:22;98381.41;;;12.84;100.00
65756;BME280;52489;47.502;18.940;2022-10-24T03:11:25;98383.94;;;12.98;100.00
65756;BME280;52489;47.502;18.940;2022-10-24T03:12:27;98389.03;;;12.94;100.00
65756;BME280;52489;47.502;18.940;2022-10-24T03:13:30;98384.25;;;12.96;100.00
65756;BME280;52489;47.502;18.940;2022-10-24T03:14:33;98385.91;;;12.92;100.00
65756;BME280;52489;47.502;18.940;2022-10-24T03:15:35;98384.41;;;13.00;100.00
65756;BME280;52489;47.502;18.940;2022-10-24T03:16:38;98398.13;;;12.88;100.00
65756;BME280;52489;47.502;18.940;2022-10-24T03:17:41;98390.72;;;12.90;100.00
65756;BME280;52489;47.502;18.940;2022-10-24T03:18:44;98396.47;;;13.01;100.00
65756;BME280;52489;47.502;18.940;2022-10-24T03:19:47;98387.03;;;13.00;100.00
65756;BME280;52489;47.502;18.940;2022-10-24T03:20:50;98376.09;;;13.07;100.00
65756;BME280;52489;47.502;18.940;2022-10-24T03:21:53;98377.94;;;13.06;100.00
65756;BME280;52489;47.502;18.940;2022-10-24T03:22:55;98367.12;;;13.08;100.00
65756;BME280;52489;47.502;18.940;2022-10-24T03:23:58;98361.06;;;13.07;100.00
65756;BME280;52489;47.502;18.940;2022-10-24T03:25:01;98362.47;;;13.05;100.00
65756;BME280;52489;47.502;18.940;2022-10-24T03:26:05;98356.91;;;13.06;100.00
65756;BME280;52489;47.502;18.940;2022-10-24T03:27:08;98355.00;;;12.98;100.00
65756;BME280;52489;47.502;18.940;2022-10-24T03:28:11;98357.47;;;12.94;100.00
65756;BME280;52489;47.502;18.940;2022-10-24T03:29:14;98351.34;;;12.77;100.00
65756;BME280;52489;47.502;18.940;2022-10-24T03:30:16;98353.63;;;12.69;100.00
65756;BME280;52489;47.502;18.940;2022-10-24T03:31:19;98363.22;;;12.74;100.00
65756;BME280;52489;47.502;18.940;2022-10-24T03:32:22;98367.44;;;12.75;100.00
65756;BME280;52489;47.502;18.940;2022-10-24T03:33:25;98368.66;;;12.78;100.00
65756;BME280;52489;47.502;18.940;2022-10-24T03:34:27;98367.59;;;12.79;100.00
65756;BME280;52489;47.502;18.940;2022-10-24T03:35:30;98372.53;;;12.80;100.00
65756;BME280;52489;47.502;18.940;2022-10-24T03:36:33;98381.50;;;13.02;100.00
65756;BME280;52489;47.502;18.940;2022-10-24T03:37:36;98386.44;;;13.03;100.00
65756;BME280;52489;47.502;18.940;2022-10-24T03:38:39;98370.44;;;12.91;100.00
65756;BME280;52489;47.502;18.940;2022-10-24T03:39:42;98383.28;;;12.92;100.00
65756;BME280;52489;47.502;18.940;2022-10-24T03:40:44;98378.03;;;12.92;100.00
65756;BME280;52489;47.502;18.940;2022-10-24T03:41:52;98390.00;;;12.76;100.00
65756;BME280;52489;47.502;18.940;2022-10-24T03:42:55;98387.97;;;12.73;100.00
65756;BME280;52489;47.502;18.940;2022-10-24T03:43:57;98386.72;;;12.93;100.00
65756;BME280;52489;47.502;18.940;2022-10-24T03:45:00;98384.53;;;12.95;100.00
65756;BME280;52489;47.502;18.940;2022-10-24T03:46:04;98377.84;;;12.89;100.00
65756;BME280;52489;47.502;18.940;2022-10-24T03:47:07;98375.06;;;12.85;100.00
65756;BME280;52489;47.502;18.940;2022-10-24T03:48:10;98375.59;;;12.96;100.00
65756;BME280;52489;47.502;18.940;2022-10-24T03:49:12;98381.00;;;13.00;100.00
65756;BME280;52489;47.502;18.940;2022-10-24T03:50:16;98377.50;;;12.82;100.00
65756;BME280;52489;47.502;18.940;2022-10-24T03:51:18;98382.12;;;12.76;100.00
65756;BME280;52489;47.502;18.940;2022-10-24T03:52:21;98385.84;;;12.75;100.00
65756;BME280;52489;47.502;18.940;2022-10-24T03:53:24;98377.81;;;12.80;100.00
65756;BME280;52489;47.502;18.940;2022-10-24T03:54:27;98380.97;;;12.91;100.00
65756;BME280;52489;47.502;18.940;2022-10-24T03:55:33;98377.00;;;13.02;100.00
65756;BME280;52489;47.502;18.940;2022-10-24T03:56:36;98385.72;;;13.11;100.00
65756;BME280;52489;47.502;18.940;2022-10-24T03:57:39;98386.97;;;13.14;100.00
65756;BME280;52489;47.502;18.940;2022-10-24T03:58:42;98389.12;;;13.12;100.00
65756;BME280;52489;47.502;18.940;2022-10-24T03:59:45;98401.66;;;13.15;100.00
65756;BME280;52489;47.502;18.940;2022-10-24T04:00:47;98398.50;;;13.04;100.00
65756;BME280;52489;47.502;18.940;2022-10-24T04:01:50;98396.09;;;12.85;100.00
65756;BME280;52489;47.502;18.940;2022-10-24T04:02:53;98406.06;;;12.97;100.00
65756;BME280;52489;47.502;18.940;2022-10-24T04:03:56;98397.88;;;12.98;100.00
65756;BME280;52489;47.502;18.940;2022-10-24T04:04:59;98409.22;;;13.08;100.00
65756;BME280;52489;47.502;18.940;2022-10-24T04:06:01;98389.22;;;13.07;100.00
65756;BME280;52489;47.502;18.940;2022-10-24T04:07:04;98403.16;;;13.07;100.00
65756;BME280;52489;47.502;18.940;2022-10-24T04:08:07;98397.28;;;13.02;100.00
65756;BME280;52489;47.502;18.940;2022-10-24T04:09:10;98399.59;;;13.03;100.00
65756;BME280;52489;47.502;18.940;2022-10-24T04:10:13;98398.66;;;12.99;100.00
65756;BME280;52489;47.502;18.940;2022-10-24T04:11:16;98404.34;;;13.01;100.00
65756;BME280;52489;47.502;18.940;2022-10-24T04:12:19;98400.50;;;12.98;100.00
65756;BME280;52489;47.502;18.940;2022-10-24T04:13:21;98398.22;;;12.83;100.00
65756;BME280;52489;47.502;18.940;2022-10-24T04:14:24;98399.06;;;12.92;100.00
65756;BME280;52489;47.502;18.940;2022-10-24T04:15:27;98403.31;;;13.02;100.00
65756;BME280;52489;47.502;18.940;2022-10-24T04:16:30;98402.06;;;13.00;100.00
65756;BME280;52489;47.502;18.940;2022-10-24T04:17:35;98404.69;;;13.00;100.00
65756;BME280;52489;47.502;18.940;2022-10-24T04:18:38;98402.34;;;12.98;100.00
65756;BME280;52489;47.502;18.940;2022-10-24T04:19:41;98394.00;;;12.96;100.00
65756;BME280;52489;47.502;18.940;2022-10-24T04:20:44;98399.31;;;13.05;100.00
65756;BME280;52489;47.502;18.940;2022-10-24T04:21:46;98392.19;;;13.05;100.00
65756;BME280;52489;47.502;18.940;2022-10-24T04:22:49;98394.69;;;13.10;100.00
65756;BME280;52489;47.502;18.940;2022-10-24T04:23:52;98388.91;;;13.00;100.00
65756;BME280;52489;47.502;18.940;2022-10-24T04:24:55;98391.88;;;13.07;100.00
65756;BME280;52489;47.502;18.940;2022-10-24T04:25:57;98390.38;;;13.14;100.00
65756;BME280;52489;47.502;18.940;2022-10-24T04:27:00;98393.13;;;13.09;100.00
65756;BME280;52489;47.502;18.940;2022-10-24T04:28:03;98387.16;;;12.95;100.00
65756;BME280;52489;47.502;18.940;2022-10-24T04:29:07;98392.25;;;12.91;100.00
65756;BME280;52489;47.502;18.940;2022-10-24T04:30:12;98388.53;;;12.92;100.00
65756;BME280;52489;47.502;18.940;2022-10-24T04:31:18;98385.91;;;12.92;100.00
65756;BME280;52489;47.502;18.940;2022-10-24T04:32:24;98393.47;;;12.85;100.00
65756;BME280;52489;47.502;18.940;2022-10-24T04:33:28;98391.66;;;12.94;100.00
65756;BME280;52489;47.502;18.940;2022-10-24T04:34:34;98387.59;;;12.88;100.00
65756;BME280;52489;47.502;18.940;2022-10-24T04:35:37;98389.28;;;12.84;100.00
65756;BME280;52489;47.502;18.940;2022-10-24T04:36:40;98383.81;;;12.81;100.00
65756;BME280;52489;47.502;18.940;2022-10-24T04:37:43;98389.34;;;12.93;100.00
65756;BME280;52489;47.502;18.940;2022-10-24T04:38:45;98381.94;;;12.72;100.00
65756;BME280;52489;47.502;18.940;2022-10-24T04:39:48;98380.16;;;12.82;100.00
65756;BME280;52489;47.502;18.940;2022-10-24T04:40:52;98378.44;;;12.86;100.00
65756;BME280;52489;47.502;18.940;2022-10-24T04:41:55;98370.41;;;12.82;100.00
65756;BME280;52489;47.502;18.940;2022-10-24T04:42:58;98370.69;;;12.81;100.00
65756;BME280;52489;47.502;18.940;2022-10-24T04:44:00;98368.97;;;12.76;100.00
65756;BME280;52489;47.502;18.940;2022-10-24T04:45:04;98370.94;;;12.70;100.00
65756;BME280;52489;47.502;18.940;2022-10-24T04:46:07;98374.66;;;12.69;100.00
65756;BME280;52489;47.502;18.940;2022-10-24T04:47:09;98371.28;;;12.78;100.00
65756;BME280;52489;47.502;18.940;2022-10-24T04:48:13;98360.53;;;12.88;100.00
65756;BME280;52489;47.502;18.940;2022-10-24T04:49:17;98358.28;;;12.72;100.00
65756;BME280;52489;47.502;18.940;2022-10-24T04:50:20;98356.44;;;12.73;100.00
65756;BME280;52489;47.502;18.940;2022-10-24T04:51:23;98359.50;;;12.66;100.00
65756;BME280;52489;47.502;18.940;2022-10-24T04:52:26;98357.81;;;12.70;100.00
65756;BME280;52489;47.502;18.940;2022-10-24T04:53:29;98355.06;;;12.53;100.00
65756;BME280;52489;47.502;18.940;2022-10-24T04:54:32;98358.66;;;12.57;100.00
65756;BME280;52489;47.502;18.940;2022-10-24T04:55:35;98361.75;;;12.59;100.00
65756;BME280;52489;47.502;18.940;2022-10-24T04:56:38;98351.91;;;12.65;100.00
65756;BME280;52489;47.502;18.940;2022-10-24T04:57:41;98353.56;;;12.61;100.00
65756;BME280;52489;47.502;18.940;2022-10-24T04:58:44;98353.88;;;12.59;100.00
65756;BME280;52489;47.502;18.940;2022-10-24T04:59:47;98362.47;;;12.51;100.00
65756;BME280;52489;47.502;18.940;2022-10-24T05:00:49;98364.91;;;12.47;100.00
65756;BME280;52489;47.502;18.940;2022-10-24T05:01:52;98356.56;;;12.45;100.00
65756;BME280;52489;47.502;18.940;2022-10-24T05:02:56;98361.03;;;12.45;100.00
65756;BME280;52489;47.502;18.940;2022-10-24T05:04:00;98358.12;;;12.46;100.00
65756;BME280;52489;47.502;18.940;2022-10-24T05:05:08;98362.66;;;12.32;100.00
65756;BME280;52489;47.502;18.940;2022-10-24T05:06:10;98361.28;;;12.35;100.00
65756;BME280;52489;47.502;18.940;2022-10-24T05:07:13;98367.56;;;12.25;100.00
65756;BME280;52489;47.502;18.940;2022-10-24T05:08:16;98363.91;;;12.35;100.00
65756;BME280;52489;47.502;18.940;2022-10-24T05:09:22;98359.81;;;12.42;100.00
65756;BME280;52489;47.502;18.940;2022-10-24T05:10:25;98369.50;;;12.42;100.00
65756;BME280;52489;47.502;18.940;2022-10-24T05:11:28;98374.66;;;12.47;100.00
65756;BME280;52489;47.502;18.940;2022-10-24T05:12:33;98382.72;;;12.50;100.00
65756;BME280;52489;47.502;18.940;2022-10-24T05:13:39;98390.53;;;12.42;100.00
65756;BME280;52489;47.502;18.940;2022-10-24T05:14:42;98402.22;;;12.36;100.00
65756;BME280;52489;47.502;18.940;2022-10-24T05:15:48;98397.94;;;12.40;100.00
65756;BME280;52489;47.502;18.940;2022-10-24T05:16:51;98409.00;;;12.50;100.00
65756;BME280;52489;47.502;18.940;2022-10-24T05:17:53;98408.31;;;12.45;100.00
65756;BME280;52489;47.502;18.940;2022-10-24T05:18:56;98411.25;;;12.66;100.00
65756;BME280;52489;47.502;18.940;2022-10-24T05:19:59;98411.47;;;12.69;100.00
65756;BME280;52489;47.502;18.940;2022-10-24T05:21:02;98411.09;;;12.62;100.00
65756;BME280;52489;47.502;18.940;2022-10-24T05:22:04;98407.56;;;12.67;100.00
65756;BME280;52489;47.502;18.940;2022-10-24T05:23:12;98398.50;;;12.73;100.00
65756;BME280;52489;47.502;18.940;2022-10-24T05:24:15;98400.63;;;12.71;100.00
65756;BME280;52489;47.502;18.940;2022-10-24T05:25:18;98412.28;;;12.56;100.00
65756;BME280;52489;47.502;18.940;2022-10-24T05:26:21;98406.44;;;12.59;100.00
65756;BME280;52489;47.502;18.940;2022-10-24T05:27:23;98394.44;;;12.67;100.00
65756;BME280;52489;47.502;18.940;2022-10-24T05:28:26;98403.38;;;12.66;100.00
65756;BME280;52489;47.502;18.940;2022-10-24T05:29:29;98400.87;;;12.61;100.00
65756;BME280;52489;47.502;18.940;2022-10-24T05:30:32;98404.47;;;12.65;100.00
65756;BME280;52489;47.502;18.940;2022-10-24T05:31:35;98406.75;;;12.58;100.00
65756;BME280;52489;47.502;18.940;2022-10-24T05:32:38;98401.09;;;12.50;100.00
65756;BME280;52489;47.502;18.940;2022-10-24T05:33:41;98405.06;;;12.62;100.00
65756;BME280;52489;47.502;18.940;2022-10-24T05:34:43;98398.47;;;12.50;100.00
65756;BME280;52489;47.502;18.940;2022-10-24T05:35:46;98400.94;;;12.47;100.00
65756;BME280;52489;47.502;18.940;2022-10-24T05:36:50;98397.22;;;12.48;100.00
65756;BME280;52489;47.502;18.940;2022-10-24T05:37:53;98401.84;;;12.42;100.00
65756;BME280;52489;47.502;18.940;2022-10-24T05:38:56;98396.44;;;12.25;100.00
65756;BME280;52489;47.502;18.940;2022-10-24T05:39:58;98401.69;;;12.25;100.00
65756;BME280;52489;47.502;18.940;2022-10-24T05:41:01;98402.97;;;12.27;100.00
65756;BME280;52489;47.502;18.940;2022-10-24T05:42:05;98396.66;;;12.15;100.00
65756;BME280;52489;47.502;18.940;2022-10-24T05:43:07;98393.69;;;12.30;100.00
65756;BME280;52489;47.502;18.940;2022-10-24T05:44:11;98398.31;;;12.47;100.00
65756;BME280;52489;47.502;18.940;2022-10-24T05:45:14;98396.22;;;12.58;100.00
65756;BME280;52489;47.502;18.940;2022-10-24T05:46:17;98401.31;;;12.54;100.00
65756;BME280;52489;47.502;18.940;2022-10-24T05:47:19;98406.28;;;12.42;100.00
65756;BME280;52489;47.502;18.940;2022-10-24T05:48:25;98408.91;;;12.42;100.00
65756;BME280;52489;47.502;18.940;2022-10-24T05:49:28;98422.56;;;12.30;100.00
65756;BME280;52489;47.502;18.940;2022-10-24T05:50:31;98431.25;;;12.31;100.00
65756;BME280;52489;47.502;18.940;2022-10-24T05:51:34;98439.00;;;12.36;100.00
65756;BME280;52489;47.502;18.940;2022-10-24T05:52:37;98440.34;;;12.47;100.00
65756;BME280;52489;47.502;18.940;2022-10-24T05:53:48;98444.97;;;12.64;100.00
65756;BME280;52489;47.502;18.940;2022-10-24T05:54:50;98433.59;;;12.77;100.00
65756;BME280;52489;47.502;18.940;2022-10-24T05:56:08;98439.34;;;12.79;100.00